sensor_id;sensor_type;location;lat;lon;timestamp;pressure;altitude;pressure_sealevel;temperature;humidity
6942;BME280;3510;43.200;27.920;2023-05-02T00:00:31;101683.88;;;16.92;46.20
6942;BME280;3510;43.200;27.920;2023-05-02T00:02:57;101681.78;;;16.53;46.01
6942;BME280;3510;43.200;27.920;2023-05-02T00:05:24;101679.38;;;16.66;45.35
6942;BME280;3510;43.200;27.920;2023-05-02T00:07:52;101680.13;;;16.54;44.86
6942;BME280;3510;43.200;27.920;2023-05-02T00:10:19;101686.75;;;16.40;44.88
6942;BME280;3510;43.200;27.920;2023-05-02T00:12:45;101681.53;;;16.38;44.97
6942;BME280;3510;43.200;27.920;2023-05-02T00:15:11;101684.44;;;16.43;44.89
6942;BME280;3510;43.200;27.920;2023-05-02T00:17:40;101689.00;;;16.59;45.00
6942;BME280;3510;43.200;27.920;2023-05-02T00:20:08;101691.00;;;16.63;45.08
6942;BME280;3510;43.200;27.920;2023-05-02T00:22:35;101690.28;;;16.42;45.78
6942;BME280;3510;43.200;27.920;2023-05-02T00:25:01;101696.94;;;16.63;45.50
6942;BME280;3510;43.200;27.920;2023-05-02T00:27:28;101695.06;;;16.61;45.89
6942;BME280;3510;43.200;27.920;2023-05-02T00:29:54;101695.06;;;16.61;45.67
6942;BME280;3510;43.200;27.920;2023-05-02T00:32:21;101700.97;;;16.38;46.53
6942;BME280;3510;43.200;27.920;2023-05-02T00:34:50;101696.19;;;16.31;46.48
6942;BME280;3510;43.200;27.920;2023-05-02T00:37:17;101704.00;;;16.44;46.33
6942;BME280;3510;43.200;27.920;2023-05-02T00:39:43;101697.81;;;16.18;46.50
6942;BME280;3510;43.200;27.920;2023-05-02T00:42:10;101697.25;;;16.11;46.32
6942;BME280;3510;43.200;27.920;2023-05-02T00:44:37;101692.16;;;16.11;46.34
6942;BME280;3510;43.200;27.920;2023-05-02T00:47:04;101690.97;;;16.17;45.90
6942;BME280;3510;43.200;27.920;2023-05-02T00:49:31;101695.00;;;16.37;45.95
6942;BME280;3510;43.200;27.920;2023-05-02T00:51:59;101695.22;;;16.29;45.89
6942;BME280;3510;43.200;27.920;2023-05-02T00:54:27;101690.50;;;16.45;45.25
6942;BME280;3510;43.200;27.920;2023-05-02T00:56:54;101683.59;;;16.20;45.70
6942;BME280;3510;43.200;27.920;2023-05-02T00:59:20;101688.78;;;16.22;45.46
6942;BME280;3510;43.200;27.920;2023-05-02T01:01:49;101687.72;;;16.08;45.49
6942;BME280;3510;43.200;27.920;2023-05-02T01:04:21;101698.97;;;16.34;45.01
6942;BME280;3510;43.200;27.920;2023-05-02T01:06:52;101692.59;;;16.39;44.92
6942;BME280;3510;43.200;27.920;2023-05-02T01:09:25;101692.59;;;16.39;44.31
6942;BME280;3510;43.200;27.920;2023-05-02T01:11:56;101694.06;;;16.13;45.25
6942;BME280;3510;43.200;27.920;2023-05-02T01:14:27;101691.59;;;16.03;45.31
6942;BME280;3510;43.200;27.920;2023-05-02T01:16:55;101686.88;;;16.19;44.66
6942;BME280;3510;43.200;27.920;2023-05-02T01:19:24;101689.25;;;16.28;44.17
6942;BME280;3510;43.200;27.920;2023-05-02T01:21:51;101688.13;;;16.25;44.00
6942;BME280;3510;43.200;27.920;2023-05-02T01:24:21;101682.19;;;16.24;43.48
6942;BME280;3510;43.200;27.920;2023-05-02T01:26:53;101682.53;;;16.07;43.80
6942;BME280;3510;43.200;27.920;2023-05-02T01:29:27;101684.28;;;16.30;43.47
6942;BME280;3510;43.200;27.920;2023-05-02T01:31:54;101686.41;;;16.35;43.49
6942;BME280;3510;43.200;27.920;2023-05-02T01:34:22;101683.53;;;16.42;42.82
6942;BME280;3510;43.200;27.920;2023-05-02T01:36:50;101685.97;;;16.07;43.08
6942;BME280;3510;43.200;27.920;2023-05-02T01:39:19;101688.59;;;16.09;43.54
6942;BME280;3510;43.200;27.920;2023-05-02T01:41:47;101682.22;;;16.02;43.97
6942;BME280;3510;43.200;27.920;2023-05-02T01:44:14;101689.06;;;15.81;44.93
6942;BME280;3510;43.200;27.920;2023-05-02T01:46:43;101684.16;;;15.62;45.40
6942;BME280;3510;43.200;27.920;2023-05-02T01:49:10;101651.00;;;15.49;45.65
6942;BME280;3510;43.200;27.920;2023-05-02T01:51:42;101681.00;;;15.65;46.07
6942;BME280;3510;43.200;27.920;2023-05-02T01:54:12;101668.50;;;15.46;46.35
6942;BME280;3510;43.200;27.920;2023-05-02T01:56:39;101616.00;;;14.91;47.23
6942;BME280;3510;43.200;27.920;2023-05-02T01:59:10;101670.75;;;15.53;46.98
6942;BME280;3510;43.200;27.920;2023-05-02T02:01:39;101673.56;;;15.46;47.50
6942;BME280;3510;43.200;27.920;2023-05-02T02:04:10;101571.03;;;15.10;47.29
6942;BME280;3510;43.200;27.920;2023-05-02T02:06:38;101599.47;;;15.06;47.89
6942;BME280;3510;43.200;27.920;2023-05-02T02:09:05;101681.31;;;15.05;48.70
6942;BME280;3510;43.200;27.920;2023-05-02T02:11:35;101666.50;;;15.10;48.89
6942;BME280;3510;43.200;27.920;2023-05-02T02:14:06;101667.50;;;15.12;48.75
6942;BME280;3510;43.200;27.920;2023-05-02T02:16:37;101685.31;;;14.91;49.39
6942;BME280;3510;43.200;27.920;2023-05-02T02:19:12;101693.78;;;15.02;49.53
6942;BME280;3510;43.200;27.920;2023-05-02T02:21:41;101686.09;;;15.22;48.83
6942;BME280;3510;43.200;27.920;2023-05-02T02:24:09;101673.28;;;14.79;49.82
6942;BME280;3510;43.200;27.920;2023-05-02T02:26:37;101682.09;;;15.04;49.21
6942;BME280;3510;43.200;27.920;2023-05-02T02:29:04;101693.06;;;15.35;47.93
6942;BME280;3510;43.200;27.920;2023-05-02T02:31:31;101697.56;;;15.07;48.46
6942;BME280;3510;43.200;27.920;2023-05-02T02:33:58;101689.69;;;15.14;48.04
6942;BME280;3510;43.200;27.920;2023-05-02T02:36:33;101692.06;;;15.23;48.27
6942;BME280;3510;43.200;27.920;2023-05-02T02:39:11;101703.84;;;15.22;48.07
6942;BME280;3510;43.200;27.920;2023-05-02T02:41:44;101702.13;;;15.11;48.01
6942;BME280;3510;43.200;27.920;2023-05-02T02:44:17;101701.56;;;14.52;49.31
6942;BME280;3510;43.200;27.920;2023-05-02T02:46:49;101693.69;;;14.70;49.47
6942;BME280;3510;43.200;27.920;2023-05-02T02:49:25;101699.03;;;14.52;49.36
6942;BME280;3510;43.200;27.920;2023-05-02T02:51:56;101699.25;;;14.86;48.81
6942;BME280;3510;43.200;27.920;2023-05-02T02:54:27;101709.28;;;14.85;48.70
6942;BME280;3510;43.200;27.920;2023-05-02T02:56:57;101711.81;;;14.74;48.49
6942;BME280;3510;43.200;27.920;2023-05-02T02:59:28;101637.72;;;14.67;48.37
6942;BME280;3510;43.200;27.920;2023-05-02T03:02:04;101711.72;;;15.15;48.11
6942;BME280;3510;43.200;27.920;2023-05-02T03:04:33;101713.03;;;15.00;48.87
6942;BME280;3510;43.200;27.920;2023-05-02T03:07:02;101633.78;;;14.29;48.86
6942;BME280;3510;43.200;27.920;2023-05-02T03:09:39;101683.81;;;14.73;47.73
6942;BME280;3510;43.200;27.920;2023-05-02T03:12:06;101717.50;;;14.72;47.59
6942;BME280;3510;43.200;27.920;2023-05-02T03:14:33;101707.88;;;14.78;47.89
6942;BME280;3510;43.200;27.920;2023-05-02T03:17:00;101717.13;;;14.77;47.53
6942;BME280;3510;43.200;27.920;2023-05-02T03:19:26;101701.78;;;14.86;47.22
6942;BME280;3510;43.200;27.920;2023-05-02T03:21:53;101689.34;;;14.99;46.46
6942;BME280;3510;43.200;27.920;2023-05-02T03:24:21;101730.22;;;15.57;45.54
6942;BME280;3510;43.200;27.920;2023-05-02T03:26:48;101675.84;;;15.21;45.44
6942;BME280;3510;43.200;27.920;2023-05-02T03:29:15;101630.13;;;14.57;46.22
6942;BME280;3510;43.200;27.920;2023-05-02T03:31:42;101745.59;;;15.58;45.51
6942;BME280;3510;43.200;27.920;2023-05-02T03:34:09;101742.72;;;15.86;45.12
6942;BME280;3510;43.200;27.920;2023-05-02T03:36:38;101746.16;;;16.42;44.13
6942;BME280;3510;43.200;27.920;2023-05-02T03:39:04;101722.41;;;16.41;43.57
6942;BME280;3510;43.200;27.920;2023-05-02T03:41:33;101757.69;;;16.82;43.65
6942;BME280;3510;43.200;27.920;2023-05-02T03:44:00;101745.25;;;17.21;42.15
6942;BME280;3510;43.200;27.920;2023-05-02T03:46:27;101771.00;;;17.60;41.95
6942;BME280;3510;43.200;27.920;2023-05-02T03:48:54;101766.00;;;17.97;40.87
6942;BME280;3510;43.200;27.920;2023-05-02T03:51:22;101770.81;;;17.81;41.37
6942;BME280;3510;43.200;27.920;2023-05-02T03:53:48;101765.38;;;18.13;40.58
6942;BME280;3510;43.200;27.920;2023-05-02T03:56:16;101771.09;;;17.97;40.71
6942;BME280;3510;43.200;27.920;2023-05-02T03:58:45;101773.28;;;18.04;40.95
6942;BME280;3510;43.200;27.920;2023-05-02T04:01:13;101769.81;;;18.16;40.75
6942;BME280;3510;43.200;27.920;2023-05-02T04:03:40;101781.44;;;17.52;41.72
6942;BME280;3510;43.200;27.920;2023-05-02T04:06:07;101779.97;;;17.20;42.25
6942;BME280;3510;43.200;27.920;2023-05-02T04:08:34;101783.81;;;16.80;42.96
6942;BME280;3510;43.200;27.920;2023-05-02T04:11:01;101778.91;;;16.83;42.89
6942;BME280;3510;43.200;27.920;2023-05-02T04:13:28;101783.66;;;16.23;43.89
6942;BME280;3510;43.200;27.920;2023-05-02T04:16:07;101775.00;;;16.42;43.83
6942;BME280;3510;43.200;27.920;2023-05-02T04:18:36;101778.28;;;16.30;43.22
6942;BME280;3510;43.200;27.920;2023-05-02T04:21:03;101781.34;;;16.81;42.09
6942;BME280;3510;43.200;27.920;2023-05-02T04:23:30;101764.16;;;16.67;41.81
6942;BME280;3510;43.200;27.920;2023-05-02T04:25:56;101778.56;;;17.35;40.79
6942;BME280;3510;43.200;27.920;2023-05-02T04:28:29;101779.84;;;17.07;40.88
6942;BME280;3510;43.200;27.920;2023-05-02T04:30:57;101777.31;;;17.42;40.22
6942;BME280;3510;43.200;27.920;2023-05-02T04:33:25;101772.78;;;17.14;40.18
6942;BME280;3510;43.200;27.920;2023-05-02T04:35:51;101740.81;;;17.06;40.05
6942;BME280;3510;43.200;27.920;2023-05-02T04:38:18;101778.31;;;17.79;39.52
6942;BME280;3510;43.200;27.920;2023-05-02T04:40:45;101736.69;;;17.79;39.23
6942;BME280;3510;43.200;27.920;2023-05-02T04:43:12;101774.91;;;18.16;38.69
6942;BME280;3510;43.200;27.920;2023-05-02T04:45:39;101770.78;;;18.29;38.43
6942;BME280;3510;43.200;27.920;2023-05-02T04:48:07;101777.78;;;17.48;39.86
6942;BME280;3510;43.200;27.920;2023-05-02T04:50:34;101738.91;;;17.39;39.99
6942;BME280;3510;43.200;27.920;2023-05-02T04:53:00;101767.25;;;17.55;39.67
6942;BME280;3510;43.200;27.920;2023-05-02T04:55:27;101771.88;;;17.96;39.53
6942;BME280;3510;43.200;27.920;2023-05-02T04:57:54;101782.25;;;18.11;39.51
6942;BME280;3510;43.200;27.920;2023-05-02T05:00:21;101754.78;;;18.07;39.85
6942;BME280;3510;43.200;27.920;2023-05-02T05:02:48;101785.78;;;18.38;39.16
6942;BME280;3510;43.200;27.920;2023-05-02T05:05:16;101753.75;;;17.56;39.76
6942;BME280;3510;43.200;27.920;2023-05-02T05:07:43;101777.03;;;18.09;39.85
6942;BME280;3510;43.200;27.920;2023-05-02T05:10:10;101793.41;;;18.13;40.18
6942;BME280;3510;43.200;27.920;2023-05-02T05:12:37;101729.59;;;17.75;40.26
6942;BME280;3510;43.200;27.920;2023-05-02T05:15:03;101793.41;;;18.75;39.26
6942;BME280;3510;43.200;27.920;2023-05-02T05:17:31;101793.34;;;18.61;39.35
6942;BME280;3510;43.200;27.920;2023-05-02T05:19:58;101777.66;;;18.69;38.66
6942;BME280;3510;43.200;27.920;2023-05-02T05:22:26;101737.00;;;18.45;38.82
6942;BME280;3510;43.200;27.920;2023-05-02T05:24:53;101794.91;;;18.59;37.89
6942;BME280;3510;43.200;27.920;2023-05-02T05:27:20;101807.75;;;19.38;36.87
6942;BME280;3510;43.200;27.920;2023-05-02T05:29:47;101818.09;;;19.79;35.81
6942;BME280;3510;43.200;27.920;2023-05-02T05:32:14;101812.38;;;20.24;34.99
6942;BME280;3510;43.200;27.920;2023-05-02T05:34:40;101824.59;;;21.29;33.00
6942;BME280;3510;43.200;27.920;2023-05-02T05:37:07;101823.94;;;21.63;32.48
6942;BME280;3510;43.200;27.920;2023-05-02T05:39:35;101828.94;;;21.76;32.46
6942;BME280;3510;43.200;27.920;2023-05-02T05:42:02;101823.38;;;21.68;32.17
6942;BME280;3510;43.200;27.920;2023-05-02T05:44:30;101829.47;;;21.85;31.67
6942;BME280;3510;43.200;27.920;2023-05-02T05:46:57;101814.47;;;22.57;30.53
6942;BME280;3510;43.200;27.920;2023-05-02T05:49:23;101828.72;;;23.01;29.57
6942;BME280;3510;43.200;27.920;2023-05-02T05:51:51;101832.88;;;23.86;27.94
6942;BME280;3510;43.200;27.920;2023-05-02T05:54:17;101824.88;;;23.62;28.08
6942;BME280;3510;43.200;27.920;2023-05-02T05:56:45;101819.38;;;23.55;28.62
6942;BME280;3510;43.200;27.920;2023-05-02T05:59:12;101793.94;;;23.61;27.48
6942;BME280;3510;43.200;27.920;2023-05-02T06:01:39;101825.47;;;24.49;26.09
6942;BME280;3510;43.200;27.920;2023-05-02T06:04:07;101842.66;;;25.10;25.95
6942;BME280;3510;43.200;27.920;2023-05-02T06:06:33;101824.06;;;24.77;26.78
6942;BME280;3510;43.200;27.920;2023-05-02T06:09:00;101833.75;;;25.23;27.08
6942;BME280;3510;43.200;27.920;2023-05-02T06:11:27;101795.00;;;24.58;28.53
6942;BME280;3510;43.200;27.920;2023-05-02T06:13:55;101837.66;;;25.13;27.87
6942;BME280;3510;43.200;27.920;2023-05-02T06:16:22;101839.28;;;24.92;28.32
6942;BME280;3510;43.200;27.920;2023-05-02T06:18:49;101832.84;;;24.42;28.92
6942;BME280;3510;43.200;27.920;2023-05-02T06:21:17;101831.44;;;24.48;29.02
6942;BME280;3510;43.200;27.920;2023-05-02T06:23:44;101816.03;;;24.30;28.90
6942;BME280;3510;43.200;27.920;2023-05-02T06:26:11;101836.66;;;24.12;29.46
6942;BME280;3510;43.200;27.920;2023-05-02T06:28:38;101826.06;;;25.03;28.25
6942;BME280;3510;43.200;27.920;2023-05-02T06:31:06;101845.47;;;25.15;27.78
6942;BME280;3510;43.200;27.920;2023-05-02T06:33:33;101830.31;;;24.82;28.11
6942;BME280;3510;43.200;27.920;2023-05-02T06:36:01;101849.84;;;24.57;30.54
6942;BME280;3510;43.200;27.920;2023-05-02T06:38:28;101847.03;;;24.14;30.99
6942;BME280;3510;43.200;27.920;2023-05-02T06:40:55;101839.63;;;23.49;31.73
6942;BME280;3510;43.200;27.920;2023-05-02T06:43:22;101840.06;;;23.58;31.97
6942;BME280;3510;43.200;27.920;2023-05-02T06:45:52;101858.41;;;23.65;32.84
6942;BME280;3510;43.200;27.920;2023-05-02T06:48:21;101819.38;;;24.10;31.93
6942;BME280;3510;43.200;27.920;2023-05-02T06:50:50;101823.47;;;23.87;31.83
6942;BME280;3510;43.200;27.920;2023-05-02T06:53:18;101871.66;;;24.09;31.88
6942;BME280;3510;43.200;27.920;2023-05-02T06:55:45;101866.50;;;24.09;32.96
6942;BME280;3510;43.200;27.920;2023-05-02T06:58:13;101871.25;;;24.56;32.43
6942;BME280;3510;43.200;27.920;2023-05-02T07:00:40;101850.38;;;24.13;32.99
6942;BME280;3510;43.200;27.920;2023-05-02T07:03:07;101881.78;;;24.06;33.15
6942;BME280;3510;43.200;27.920;2023-05-02T07:05:36;101885.41;;;23.91;34.13
6942;BME280;3510;43.200;27.920;2023-05-02T07:08:03;101843.25;;;24.25;32.67
6942;BME280;3510;43.200;27.920;2023-05-02T07:10:30;101889.47;;;24.42;33.18
6942;BME280;3510;43.200;27.920;2023-05-02T07:12:57;101849.03;;;23.48;35.00
6942;BME280;3510;43.200;27.920;2023-05-02T07:15:24;101886.00;;;24.04;35.19
6942;BME280;3510;43.200;27.920;2023-05-02T07:17:50;101893.88;;;24.44;35.82
6942;BME280;3510;43.200;27.920;2023-05-02T07:20:17;101895.69;;;24.09;36.84
6942;BME280;3510;43.200;27.920;2023-05-02T07:22:45;101886.09;;;24.25;37.53
6942;BME280;3510;43.200;27.920;2023-05-02T07:25:12;101884.94;;;24.18;37.54
6942;BME280;3510;43.200;27.920;2023-05-02T07:27:39;101880.19;;;24.65;36.47
6942;BME280;3510;43.200;27.920;2023-05-02T07:30:06;101897.88;;;24.57;36.51
6942;BME280;3510;43.200;27.920;2023-05-02T07:32:33;101838.84;;;23.85;38.32
6942;BME280;3510;43.200;27.920;2023-05-02T07:35:00;101882.03;;;24.48;38.56
6942;BME280;3510;43.200;27.920;2023-05-02T07:37:31;101894.91;;;24.48;39.44
6942;BME280;3510;43.200;27.920;2023-05-02T07:39:59;101910.75;;;24.57;39.39
6942;BME280;3510;43.200;27.920;2023-05-02T07:42:28;101901.41;;;24.78;39.01
6942;BME280;3510;43.200;27.920;2023-05-02T07:44:55;101910.06;;;24.42;39.11
6942;BME280;3510;43.200;27.920;2023-05-02T07:47:22;101892.59;;;23.99;39.46
6942;BME280;3510;43.200;27.920;2023-05-02T07:49:50;101915.81;;;24.18;39.11
6942;BME280;3510;43.200;27.920;2023-05-02T07:52:17;101903.56;;;24.50;39.05
6942;BME280;3510;43.200;27.920;2023-05-02T07:54:44;101912.66;;;25.00;37.79
6942;BME280;3510;43.200;27.920;2023-05-02T07:57:13;101907.34;;;24.97;38.05
6942;BME280;3510;43.200;27.920;2023-05-02T07:59:40;101912.75;;;25.03;38.46
6942;BME280;3510;43.200;27.920;2023-05-02T08:02:06;101898.16;;;24.44;38.95
6942;BME280;3510;43.200;27.920;2023-05-02T08:04:33;101912.59;;;24.40;38.47
6942;BME280;3510;43.200;27.920;2023-05-02T08:07:00;101903.16;;;24.79;36.84
6942;BME280;3510;43.200;27.920;2023-05-02T08:09:28;101915.34;;;24.45;37.87
6942;BME280;3510;43.200;27.920;2023-05-02T08:11:55;101914.09;;;24.36;36.42
6942;BME280;3510;43.200;27.920;2023-05-02T08:14:25;101889.81;;;24.31;36.85
6942;BME280;3510;43.200;27.920;2023-05-02T08:16:53;101916.03;;;24.60;37.99
6942;BME280;3510;43.200;27.920;2023-05-02T08:19:20;101904.84;;;24.98;37.75
6942;BME280;3510;43.200;27.920;2023-05-02T08:21:46;101918.34;;;24.93;38.29
6942;BME280;3510;43.200;27.920;2023-05-02T08:24:13;101917.31;;;24.50;40.60
6942;BME280;3510;43.200;27.920;2023-05-02T08:26:40;101924.63;;;24.41;41.10
6942;BME280;3510;43.200;27.920;2023-05-02T08:29:07;101921.59;;;24.89;40.68
6942;BME280;3510;43.200;27.920;2023-05-02T08:31:38;101920.75;;;25.09;40.35
6942;BME280;3510;43.200;27.920;2023-05-02T08:34:05;101922.72;;;25.34;39.96
6942;BME280;3510;43.200;27.920;2023-05-02T08:36:32;101818.78;;;23.96;41.66
6942;BME280;3510;43.200;27.920;2023-05-02T08:38:59;101928.47;;;25.09;40.63
6942;BME280;3510;43.200;27.920;2023-05-02T08:41:28;101834.75;;;24.08;41.55
6942;BME280;3510;43.200;27.920;2023-05-02T08:43:56;101920.25;;;24.97;41.31
6942;BME280;3510;43.200;27.920;2023-05-02T08:46:22;101926.81;;;24.90;40.86
6942;BME280;3510;43.200;27.920;2023-05-02T08:48:52;101926.84;;;25.30;40.30
6942;BME280;3510;43.200;27.920;2023-05-02T08:51:21;101891.44;;;24.86;40.91
6942;BME280;3510;43.200;27.920;2023-05-02T08:53:49;101920.69;;;24.88;40.99
6942;BME280;3510;43.200;27.920;2023-05-02T08:56:17;101924.69;;;24.62;41.14
6942;BME280;3510;43.200;27.920;2023-05-02T08:58:44;101926.00;;;24.91;40.94
6942;BME280;3510;43.200;27.920;2023-05-02T09:01:14;101920.50;;;25.22;40.36
6942;BME280;3510;43.200;27.920;2023-05-02T09:03:42;101899.91;;;24.83;41.36
6942;BME280;3510;43.200;27.920;2023-05-02T09:06:12;101924.69;;;25.01;41.25
6942;BME280;3510;43.200;27.920;2023-05-02T09:08:41;101923.66;;;25.57;40.10
6942;BME280;3510;43.200;27.920;2023-05-02T09:11:09;101922.47;;;25.49;40.46
6942;BME280;3510;43.200;27.920;2023-05-02T09:13:38;101934.09;;;25.39;40.52
6942;BME280;3510;43.200;27.920;2023-05-02T09:16:06;101898.81;;;25.59;39.91
6942;BME280;3510;43.200;27.920;2023-05-02T09:18:36;101918.94;;;24.87;41.54
6942;BME280;3510;43.200;27.920;2023-05-02T09:21:05;101899.97;;;24.28;42.42
6942;BME280;3510;43.200;27.920;2023-05-02T09:23:38;101893.84;;;25.22;40.77
6942;BME280;3510;43.200;27.920;2023-05-02T09:26:14;101895.81;;;25.08;40.82
6942;BME280;3510;43.200;27.920;2023-05-02T09:28:43;101899.94;;;25.24;40.71
6942;BME280;3510;43.200;27.920;2023-05-02T09:31:11;101924.44;;;25.77;40.12
6942;BME280;3510;43.200;27.920;2023-05-02T09:33:39;101867.47;;;25.08;40.76
6942;BME280;3510;43.200;27.920;2023-05-02T09:36:07;101912.97;;;25.48;40.47
6942;BME280;3510;43.200;27.920;2023-05-02T09:38:37;101903.72;;;25.11;40.49
6942;BME280;3510;43.200;27.920;2023-05-02T09:41:04;101915.59;;;25.70;39.62
6942;BME280;3510;43.200;27.920;2023-05-02T09:43:31;101915.47;;;25.06;40.33
6942;BME280;3510;43.200;27.920;2023-05-02T09:46:00;101915.47;;;25.25;40.59
6942;BME280;3510;43.200;27.920;2023-05-02T09:48:29;101909.97;;;25.37;40.68
6942;BME280;3510;43.200;27.920;2023-05-02T09:50:57;101923.63;;;25.36;40.84
6942;BME280;3510;43.200;27.920;2023-05-02T09:53:25;101847.84;;;24.91;40.67
6942;BME280;3510;43.200;27.920;2023-05-02T09:56:02;101899.13;;;25.46;40.96
6942;BME280;3510;43.200;27.920;2023-05-02T09:58:30;101890.34;;;25.41;41.02
6942;BME280;3510;43.200;27.920;2023-05-02T10:00:58;101892.84;;;25.18;41.52
6942;BME280;3510;43.200;27.920;2023-05-02T10:03:27;101908.13;;;25.55;41.06
6942;BME280;3510;43.200;27.920;2023-05-02T10:05:56;101899.06;;;25.04;42.45
6942;BME280;3510;43.200;27.920;2023-05-02T10:08:27;101874.63;;;25.34;41.29
6942;BME280;3510;43.200;27.920;2023-05-02T10:10:55;101897.88;;;24.76;42.50
6942;BME280;3510;43.200;27.920;2023-05-02T10:13:25;101894.94;;;25.07;42.34
6942;BME280;3510;43.200;27.920;2023-05-02T10:15:58;101914.75;;;24.89;42.47
6942;BME280;3510;43.200;27.920;2023-05-02T10:18:32;101917.78;;;25.19;42.29
6942;BME280;3510;43.200;27.920;2023-05-02T10:21:08;101869.44;;;24.36;43.44
6942;BME280;3510;43.200;27.920;2023-05-02T10:23:37;101901.94;;;24.91;42.79
6942;BME280;3510;43.200;27.920;2023-05-02T10:26:07;101917.34;;;24.70;43.64
6942;BME280;3510;43.200;27.920;2023-05-02T10:28:35;101863.38;;;24.53;43.31
6942;BME280;3510;43.200;27.920;2023-05-02T10:31:04;101895.72;;;24.66;43.51
6942;BME280;3510;43.200;27.920;2023-05-02T10:33:33;101912.47;;;24.38;44.38
6942;BME280;3510;43.200;27.920;2023-05-02T10:36:01;101880.13;;;24.82;43.37
6942;BME280;3510;43.200;27.920;2023-05-02T10:38:28;101904.38;;;24.68;43.66
6942;BME280;3510;43.200;27.920;2023-05-02T10:40:58;101913.75;;;24.66;43.94
6942;BME280;3510;43.200;27.920;2023-05-02T10:43:29;101911.44;;;25.11;43.46
6942;BME280;3510;43.200;27.920;2023-05-02T10:45:58;101906.56;;;25.80;41.58
6942;BME280;3510;43.200;27.920;2023-05-02T10:48:28;101916.22;;;25.23;42.17
6942;BME280;3510;43.200;27.920;2023-05-02T10:50:59;101898.88;;;25.40;40.69
6942;BME280;3510;43.200;27.920;2023-05-02T10:53:29;101894.72;;;25.43;42.14
6942;BME280;3510;43.200;27.920;2023-05-02T10:56:10;101917.22;;;25.68;39.32
6942;BME280;3510;43.200;27.920;2023-05-02T10:58:37;101889.69;;;25.46;39.20
6942;BME280;3510;43.200;27.920;2023-05-02T11:04:05;101911.38;;;25.72;37.97
6942;BME280;3510;43.200;27.920;2023-05-02T11:06:34;101855.94;;;25.40;38.13
6942;BME280;3510;43.200;27.920;2023-05-02T11:09:29;101910.31;;;25.67;37.87
6942;BME280;3510;43.200;27.920;2023-05-02T11:11:57;101881.44;;;25.13;38.52
6942;BME280;3510;43.200;27.920;2023-05-02T11:14:45;101913.13;;;25.73;37.20
6942;BME280;3510;43.200;27.920;2023-05-02T11:17:14;101908.97;;;26.43;36.13
6942;BME280;3510;43.200;27.920;2023-05-02T11:22:35;101903.69;;;26.17;36.14
6942;BME280;3510;43.200;27.920;2023-05-02T11:25:03;101903.28;;;25.42;36.61
6942;BME280;3510;43.200;27.920;2023-05-02T11:27:37;101905.47;;;25.75;36.44
6942;BME280;3510;43.200;27.920;2023-05-02T11:30:04;101889.09;;;25.95;35.94
6942;BME280;3510;43.200;27.920;2023-05-02T11:35:30;101855.53;;;25.95;35.42
6942;BME280;3510;43.200;27.920;2023-05-02T11:38:00;101905.06;;;26.08;34.99
6942;BME280;3510;43.200;27.920;2023-05-02T11:40:28;101885.22;;;25.84;35.73
6942;BME280;3510;43.200;27.920;2023-05-02T11:42:56;101907.09;;;26.16;35.25
6942;BME280;3510;43.200;27.920;2023-05-02T11:45:31;101896.19;;;26.01;35.18
6942;BME280;3510;43.200;27.920;2023-05-02T11:48:00;101899.94;;;26.09;34.97
6942;BME280;3510;43.200;27.920;2023-05-02T11:50:28;101901.53;;;26.28;34.82
6942;BME280;3510;43.200;27.920;2023-05-02T11:52:55;101898.75;;;27.18;33.66
6942;BME280;3510;43.200;27.920;2023-05-02T11:55:23;101875.13;;;28.76;31.71
6942;BME280;3510;43.200;27.920;2023-05-02T11:57:50;101890.84;;;28.82;31.85
6942;BME280;3510;43.200;27.920;2023-05-02T12:00:17;101895.09;;;30.22;29.88
6942;BME280;3510;43.200;27.920;2023-05-02T12:02:45;101888.38;;;30.30;29.28
6942;BME280;3510;43.200;27.920;2023-05-02T12:05:13;101874.44;;;31.22;28.16
6942;BME280;3510;43.200;27.920;2023-05-02T12:07:41;101853.97;;;32.02;26.78
6942;BME280;3510;43.200;27.920;2023-05-02T12:10:10;101888.63;;;31.94;26.76
6942;BME280;3510;43.200;27.920;2023-05-02T12:12:39;101904.16;;;33.46;25.08
6942;BME280;3510;43.200;27.920;2023-05-02T12:15:08;101882.59;;;33.71;24.57
6942;BME280;3510;43.200;27.920;2023-05-02T12:17:37;101894.22;;;32.24;25.42
6942;BME280;3510;43.200;27.920;2023-05-02T12:22:41;101895.22;;;34.75;23.07
6942;BME280;3510;43.200;27.920;2023-05-02T12:25:08;101893.34;;;32.24;25.67
6942;BME280;3510;43.200;27.920;2023-05-02T12:27:35;101895.84;;;30.58;27.20
6942;BME280;3510;43.200;27.920;2023-05-02T12:30:04;101890.00;;;29.87;28.18
6942;BME280;3510;43.200;27.920;2023-05-02T12:32:33;101883.44;;;28.64;29.17
6942;BME280;3510;43.200;27.920;2023-05-02T12:35:01;101886.28;;;29.05;29.52
6942;BME280;3510;43.200;27.920;2023-05-02T12:37:29;101881.59;;;27.47;30.68
6942;BME280;3510;43.200;27.920;2023-05-02T12:39:56;101885.75;;;26.91;30.56
6942;BME280;3510;43.200;27.920;2023-05-02T12:42:24;101873.84;;;26.70;30.52
6942;BME280;3510;43.200;27.920;2023-05-02T12:44:52;101843.41;;;27.11;30.56
6942;BME280;3510;43.200;27.920;2023-05-02T12:47:22;101872.63;;;26.85;31.49
6942;BME280;3510;43.200;27.920;2023-05-02T12:49:51;101845.22;;;26.90;31.90
6942;BME280;3510;43.200;27.920;2023-05-02T12:52:19;101857.94;;;26.84;32.11
6942;BME280;3510;43.200;27.920;2023-05-02T12:54:47;101793.78;;;26.46;32.23
6942;BME280;3510;43.200;27.920;2023-05-02T12:57:22;101865.31;;;26.49;33.20
6942;BME280;3510;43.200;27.920;2023-05-02T12:59:51;101870.69;;;26.09;33.25
6942;BME280;3510;43.200;27.920;2023-05-02T13:02:19;101834.81;;;25.92;33.53
6942;BME280;3510;43.200;27.920;2023-05-02T13:04:47;101874.97;;;26.08;33.29
6942;BME280;3510;43.200;27.920;2023-05-02T13:07:14;101850.41;;;26.42;31.66
6942;BME280;3510;43.200;27.920;2023-05-02T13:09:41;101860.25;;;26.76;31.57
6942;BME280;3510;43.200;27.920;2023-05-02T13:12:08;101850.81;;;25.83;31.76
6942;BME280;3510;43.200;27.920;2023-05-02T13:14:35;101833.63;;;25.84;32.07
6942;BME280;3510;43.200;27.920;2023-05-02T13:17:02;101872.38;;;26.30;33.04